createdAt,value
2023-03-24T00:00:31.497Z,99.99
2023-03-24T00:01:31.481Z,99.99
2023-03-24T00:02:31.553Z,99.99
2023-03-24T00:03:31.582Z,99.99
2023-03-24T00:04:31.469Z,99.99
2023-03-24T00:05:31.443Z,99.99
2023-03-24T00:06:31.410Z,99.99
2023-03-24T00:07:31.391Z,99.99
2023-03-24T00:08:31.410Z,99.99
2023-03-24T00:09:31.359Z,99.99
2023-03-24T00:10:31.374Z,99.99
2023-03-24T00:11:31.332Z,99.99
2023-03-24T00:12:31.329Z,99.99
2023-03-24T00:13:31.314Z,99.99
2023-03-24T00:14:31.358Z,99.99
2023-03-24T00:15:31.279Z,99.99
2023-03-24T00:16:31.266Z,99.99
2023-03-24T00:17:31.271Z,99.99
2023-03-24T00:18:31.245Z,99.99
2023-03-24T00:19:31.232Z,99.99
2023-03-24T00:20:31.250Z,99.99
2023-03-24T00:21:31.276Z,99.99
2023-03-24T00:22:31.200Z,99.99
2023-03-24T00:23:31.157Z,99.99
2023-03-24T00:24:31.156Z,99.99
2023-03-24T00:25:31.153Z,99.99
2023-03-24T00:26:31.118Z,99.99
2023-03-24T00:27:31.138Z,99.99
2023-03-24T00:28:31.113Z,99.99
2023-03-24T00:29:31.094Z,99.99
2023-03-24T00:30:31.071Z,99.99
2023-03-24T00:31:31.104Z,99.99
2023-03-24T00:32:31.100Z,99.99
2023-03-24T00:33:31.040Z,99.99
2023-03-24T00:34:31.020Z,99.99
2023-03-24T00:35:31.008Z,99.99
2023-03-24T00:36:30.997Z,99.99
2023-03-24T00:37:30.983Z,99.99
2023-03-24T00:38:31.003Z,99.99
2023-03-24T00:39:30.934Z,99.99
2023-03-24T00:40:30.931Z,99.99
2023-03-24T00:41:30.965Z,99.99
2023-03-24T00:42:30.909Z,99.99
2023-03-24T00:43:30.935Z,99.99
2023-03-24T00:44:30.922Z,99.99
2023-03-24T00:45:30.885Z,99.99
2023-03-24T00:46:30.959Z,99.99
2023-03-24T00:47:30.851Z,99.99
2023-03-24T00:48:30.852Z,99.99
2023-03-24T00:49:30.804Z,99.99
2023-03-24T00:50:30.842Z,99.99
2023-03-24T00:51:30.795Z,99.99
2023-03-24T00:52:30.756Z,99.99
2023-03-24T00:53:30.739Z,99.99
2023-03-24T00:54:30.763Z,99.99
2023-03-24T00:55:30.770Z,99.99
2023-03-24T00:56:30.746Z,99.99
2023-03-24T00:57:31.959Z,99.99
2023-03-24T00:58:30.680Z,99.99
2023-03-24T00:59:30.660Z,99.99
2023-03-24T01:00:30.738Z,99.99
2023-03-24T01:01:30.697Z,99.99
2023-03-24T01:02:30.690Z,99.99
2023-03-24T01:03:30.604Z,99.99
2023-03-24T01:04:30.582Z,99.99
2023-03-24T01:05:30.575Z,99.99
2023-03-24T01:06:30.578Z,99.99
2023-03-24T01:07:30.593Z,99.99
2023-03-24T01:08:30.534Z,99.99
2023-03-24T01:09:30.535Z,99.99
2023-03-24T01:10:30.508Z,99.99
2023-03-24T01:11:30.528Z,99.99
2023-03-24T01:12:30.484Z,99.99
2023-03-24T01:13:30.483Z,99.99
2023-03-24T01:14:30.452Z,99.99
2023-03-24T01:15:30.458Z,99.99
2023-03-24T01:16:30.470Z,99.99
2023-03-24T01:17:30.425Z,99.99
2023-03-24T01:18:30.389Z,99.99
2023-03-24T01:19:30.393Z,99.99
2023-03-24T01:20:30.358Z,99.99
2023-03-24T01:21:30.353Z,99.99
2023-03-24T01:22:30.329Z,99.99
2023-03-24T01:23:30.317Z,99.99
2023-03-24T01:24:30.362Z,99.99
2023-03-24T01:25:30.331Z,99.99
2023-03-24T01:26:30.280Z,99.99
2023-03-24T01:27:30.246Z,99.99
2023-03-24T01:28:30.278Z,99.99
2023-03-24T01:29:30.221Z,99.99
2023-03-24T01:30:30.253Z,99.99
2023-03-24T01:31:30.257Z,99.99
2023-03-24T01:32:30.265Z,99.99
2023-03-24T01:33:30.176Z,99.99
2023-03-24T01:34:30.192Z,99.99
2023-03-24T01:35:30.155Z,99.99
2023-03-24T01:36:30.126Z,99.99
2023-03-24T01:37:30.105Z,99.99
2023-03-24T01:38:30.108Z,99.99
2023-03-24T01:39:30.182Z,99.99
2023-03-24T01:40:30.129Z,99.99
2023-03-24T01:41:30.063Z,99.99
2023-03-24T01:42:30.057Z,99.99
2023-03-24T01:43:30.024Z,99.99
2023-03-24T01:44:30.049Z,99.99
2023-03-24T01:45:29.996Z,99.99
2023-03-24T01:46:29.981Z,99.99
2023-03-24T01:47:30.094Z,99.99
2023-03-24T01:48:30.004Z,99.99
2023-03-24T01:49:29.957Z,99.99
2023-03-24T01:50:29.932Z,99.99
2023-03-24T01:51:29.931Z,99.99
2023-03-24T01:52:29.906Z,99.99
2023-03-24T01:53:29.916Z,99.99
2023-03-24T01:54:29.919Z,99.99
2023-03-24T01:55:29.892Z,99.99
2023-03-24T01:56:29.887Z,99.99
2023-03-24T01:57:29.828Z,99.99
2023-03-24T01:58:29.865Z,99.99
2023-03-24T01:59:29.837Z,99.99
2023-03-24T02:00:29.789Z,99.99
2023-03-24T02:01:29.835Z,99.99
2023-03-24T02:02:29.843Z,99.99
2023-03-24T02:03:29.762Z,99.99
2023-03-24T02:04:29.807Z,99.99
2023-03-24T02:05:29.739Z,99.99
2023-03-24T02:06:29.757Z,99.99
2023-03-24T02:07:29.671Z,99.99
2023-03-24T02:08:29.735Z,99.99
2023-03-24T02:09:29.651Z,99.99
2023-03-24T02:10:29.670Z,99.99
2023-03-24T02:11:29.646Z,99.99
2023-03-24T02:12:29.636Z,99.99
2023-03-24T02:13:29.623Z,99.99
2023-03-24T02:14:29.585Z,99.99
2023-03-24T02:15:29.574Z,99.99
2023-03-24T02:16:29.655Z,99.99
2023-03-24T02:17:29.600Z,99.99
2023-03-24T02:18:29.586Z,99.99
2023-03-24T02:19:29.546Z,99.99
2023-03-24T02:20:29.530Z,99.99
2023-03-24T02:21:29.497Z,99.99
2023-03-24T02:22:29.507Z,99.99
2023-03-24T02:23:29.483Z,99.99
2023-03-24T02:24:29.457Z,99.99
2023-03-24T02:25:29.472Z,99.99
2023-03-24T02:26:29.458Z,99.99
2023-03-24T02:27:29.437Z,99.99
2023-03-24T02:28:29.411Z,99.99
2023-03-24T02:29:29.381Z,99.99
2023-03-24T02:30:29.403Z,99.99
2023-03-24T02:31:29.418Z,99.99
2023-03-24T02:32:29.407Z,99.99
2023-03-24T02:33:29.324Z,99.99
2023-03-24T02:34:29.307Z,99.99
2023-03-24T02:35:29.301Z,99.99
2023-03-24T02:36:29.296Z,99.99
2023-03-24T02:37:29.286Z,99.99
2023-03-24T02:38:29.256Z,99.99
2023-03-24T02:39:29.300Z,99.99
2023-03-24T02:40:29.253Z,99.99
2023-03-24T02:41:29.220Z,99.99
2023-03-24T02:42:29.220Z,99.99
2023-03-24T02:43:29.186Z,99.99
2023-03-24T02:44:29.179Z,99.99
2023-03-24T02:45:29.190Z,99.99
2023-03-24T02:46:29.215Z,99.99
2023-03-24T02:47:29.263Z,99.99
2023-03-24T02:48:29.142Z,99.99
2023-03-24T02:49:29.097Z,99.99
2023-03-24T02:50:29.113Z,99.99
2023-03-24T02:51:29.101Z,99.99
2023-03-24T02:52:29.107Z,99.99
2023-03-24T02:53:29.028Z,99.99
2023-03-24T02:54:29.050Z,99.99
2023-03-24T02:55:28.981Z,99.99
2023-03-24T02:56:29.027Z,99.99
2023-03-24T02:57:28.975Z,99.99
2023-03-24T02:58:28.996Z,99.99
2023-03-24T02:59:28.935Z,99.99
2023-03-24T03:00:28.949Z,99.99
2023-03-24T03:01:29.027Z,99.99
2023-03-24T03:02:28.987Z,99.99
2023-03-24T03:03:28.917Z,99.99
2023-03-24T03:04:29.509Z,99.99
2023-03-24T03:05:28.879Z,99.99
2023-03-24T03:06:28.899Z,99.99
2023-03-24T03:07:28.843Z,99.99
2023-03-24T03:08:28.854Z,99.99
2023-03-24T03:09:28.826Z,99.99
2023-03-24T03:10:28.830Z,99.99
2023-03-24T03:11:28.783Z,99.99
2023-03-24T03:12:28.778Z,99.99
2023-03-24T03:13:28.732Z,99.99
2023-03-24T03:14:28.775Z,99.99
2023-03-24T03:15:28.766Z,99.99
2023-03-24T03:16:28.727Z,99.99
2023-03-24T03:17:28.717Z,99.99
2023-03-24T03:18:28.670Z,99.99
2023-03-24T03:19:28.648Z,99.99
2023-03-24T03:20:28.647Z,99.99
2023-03-24T03:21:28.627Z,99.99
2023-03-24T03:22:28.633Z,99.99
2023-03-24T03:23:28.596Z,99.99
2023-03-24T03:24:28.591Z,99.99
2023-03-24T03:25:28.589Z,99.99
2023-03-24T03:26:28.562Z,99.99
2023-03-24T03:27:28.615Z,99.99
2023-03-24T03:28:28.564Z,99.99
2023-03-24T03:29:28.509Z,99.99
2023-03-24T03:30:28.497Z,99.99
2023-03-24T03:31:28.567Z,99.99
2023-03-24T03:32:28.515Z,99.99
2023-03-24T03:33:28.486Z,99.99
2023-03-24T03:34:28.498Z,99.99
2023-03-24T03:35:28.432Z,99.99
2023-03-24T03:36:28.466Z,99.99
2023-03-24T03:37:28.458Z,99.99
2023-03-24T03:38:28.398Z,99.99
2023-03-24T03:39:28.378Z,99.99
2023-03-24T03:40:28.408Z,99.99
2023-03-24T03:41:28.354Z,99.99
2023-03-24T03:42:28.336Z,99.99
2023-03-24T03:43:28.368Z,99.99
2023-03-24T03:44:28.311Z,99.99
2023-03-24T03:45:28.288Z,99.99
2023-03-24T03:46:28.373Z,99.99
2023-03-24T03:47:28.319Z,99.99
2023-03-24T03:48:28.264Z,99.99
2023-03-24T03:49:28.315Z,99.66
2023-03-24T03:50:28.231Z,99.99
2023-03-24T03:51:28.219Z,99.99
2023-03-24T03:52:28.200Z,99.99
2023-03-24T03:53:28.181Z,99.99
2023-03-24T03:54:28.176Z,99.99
2023-03-24T03:55:28.196Z,99.99
2023-03-24T03:56:28.243Z,99.99
2023-03-24T03:57:28.113Z,99.99
2023-03-24T03:58:28.121Z,99.66
2023-03-24T03:59:28.413Z,98.50
2023-03-24T04:00:28.148Z,98.19
2023-03-24T04:01:28.105Z,98.60
2023-03-24T04:02:28.097Z,98.19
2023-03-24T04:03:28.214Z,97.99
2023-03-24T04:04:28.066Z,98.70
2023-03-24T04:05:28.150Z,98.39
2023-03-24T04:06:28.032Z,97.99
2023-03-24T04:07:28.025Z,98.70
2023-03-24T04:08:28.053Z,98.30
2023-03-24T04:09:27.970Z,98.50
2023-03-24T04:10:27.955Z,97.89
2023-03-24T04:11:27.966Z,98.50
2023-03-24T04:12:27.941Z,98.19
2023-03-24T04:13:27.906Z,98.60
2023-03-24T04:14:27.904Z,98.19
2023-03-24T04:15:27.882Z,97.99
2023-03-24T04:16:27.901Z,97.78
2023-03-24T04:17:27.901Z,98.39
2023-03-24T04:18:27.907Z,99.11
2023-03-24T04:19:27.847Z,98.91
2023-03-24T04:20:27.828Z,99.41
2023-03-24T04:21:27.796Z,99.41
2023-03-24T04:22:27.832Z,99.77
2023-03-24T04:23:27.796Z,99.87
2023-03-24T04:24:27.769Z,99.56
2023-03-24T04:25:27.746Z,99.36
2023-03-24T04:26:27.794Z,99.66
2023-03-24T04:27:27.720Z,99.97
2023-03-24T04:28:27.772Z,99.97
2023-03-24T04:29:27.696Z,99.99
2023-03-24T04:30:27.729Z,99.81
2023-03-24T04:31:27.688Z,99.61
2023-03-24T04:32:27.735Z,99.71
2023-03-24T04:33:27.643Z,99.81
2023-03-24T04:34:27.647Z,99.99
2023-03-24T04:35:27.674Z,99.81
2023-03-24T04:36:27.598Z,99.71
2023-03-24T04:37:27.594Z,99.99
2023-03-24T04:38:27.616Z,99.91
2023-03-24T04:39:27.601Z,99.00
2023-03-24T04:40:27.536Z,98.39
2023-03-24T04:41:27.533Z,98.85
2023-03-24T04:42:27.554Z,99.16
2023-03-24T04:43:27.513Z,99.36
2023-03-24T04:44:27.506Z,99.36
2023-03-24T04:45:27.561Z,99.20
2023-03-24T04:46:27.597Z,99.30
2023-03-24T04:47:27.469Z,98.90
2023-03-24T04:48:27.436Z,98.14
2023-03-24T04:49:27.487Z,98.03
2023-03-24T04:50:27.422Z,98.54
2023-03-24T04:51:27.429Z,98.54
2023-03-24T04:52:27.377Z,99.16
2023-03-24T04:53:27.388Z,99.16
2023-03-24T04:54:27.364Z,99.26
2023-03-24T04:55:27.344Z,99.16
2023-03-24T04:56:27.395Z,98.65
2023-03-24T04:57:27.344Z,97.93
2023-03-24T04:58:27.316Z,98.44
2023-03-24T04:59:27.289Z,98.95
2023-03-24T05:00:27.297Z,97.32
2023-03-24T05:01:27.290Z,97.73
2023-03-24T05:02:27.375Z,96.66
2023-03-24T05:03:27.270Z,96.41
2023-03-24T05:04:27.272Z,95.59
2023-03-24T05:05:27.211Z,94.88
2023-03-24T05:06:27.212Z,94.47
2023-03-24T05:07:27.232Z,93.15
2023-03-24T05:08:27.205Z,93.05
2023-03-24T05:09:27.172Z,93.86
2023-03-24T05:10:27.160Z,93.19
2023-03-24T05:11:27.132Z,93.90
2023-03-24T05:12:27.147Z,94.62
2023-03-24T05:13:27.130Z,94.11
2023-03-24T05:14:27.083Z,93.90
2023-03-24T05:15:27.072Z,93.19
2023-03-24T05:16:27.067Z,93.50
2023-03-24T05:17:27.106Z,92.68
2023-03-24T05:18:27.042Z,92.27
2023-03-24T05:19:27.033Z,92.38
2023-03-24T05:20:27.009Z,91.36
2023-03-24T05:21:27.036Z,92.48
2023-03-24T05:22:26.988Z,92.11
2023-03-24T05:23:26.979Z,92.22
2023-03-24T05:24:26.989Z,92.42
2023-03-24T05:25:26.976Z,92.52
2023-03-24T05:26:26.942Z,93.03
2023-03-24T05:27:26.923Z,93.54
2023-03-24T05:28:26.924Z,93.85
2023-03-24T05:29:26.902Z,91.20
2023-03-24T05:30:26.881Z,92.52
2023-03-24T05:31:26.858Z,90.79
2023-03-24T05:32:26.892Z,91.55
2023-03-24T05:33:26.819Z,91.14
2023-03-24T05:34:26.827Z,89.51
2023-03-24T05:35:26.805Z,90.53
2023-03-24T05:36:26.812Z,89.55
2023-03-24T05:37:26.807Z,89.75
2023-03-24T05:38:26.781Z,90.06
2023-03-24T05:39:26.745Z,89.08
2023-03-24T05:40:26.750Z,89.08
2023-03-24T05:41:26.738Z,89.39
2023-03-24T05:42:26.691Z,89.59
2023-03-24T05:43:26.724Z,89.43
2023-03-24T05:44:26.663Z,89.02
2023-03-24T05:45:26.711Z,88.82
2023-03-24T05:46:26.780Z,89.02
2023-03-24T05:47:26.706Z,88.61
2023-03-24T05:48:26.625Z,88.14
2023-03-24T05:49:26.930Z,87.84
2023-03-24T05:50:26.574Z,87.12
2023-03-24T05:51:26.612Z,87.02
2023-03-24T05:52:28.626Z,87.43
2023-03-24T05:53:26.549Z,87.02
2023-03-24T05:54:26.602Z,87.12
2023-03-24T05:55:26.539Z,86.51
2023-03-24T05:56:26.540Z,87.02
2023-03-24T05:57:26.495Z,87.73
2023-03-24T05:58:26.474Z,87.37
2023-03-24T05:59:26.455Z,86.55
2023-03-24T06:00:26.444Z,86.65
2023-03-24T06:01:26.501Z,85.42
2023-03-24T06:02:26.469Z,85.32
2023-03-24T06:03:26.489Z,86.04
2023-03-24T06:04:26.442Z,85.38
2023-03-24T06:05:26.373Z,84.98
2023-03-24T06:06:26.350Z,84.67
2023-03-24T06:07:26.368Z,85.69
2023-03-24T06:08:26.366Z,85.89
2023-03-24T06:09:26.307Z,84.98
2023-03-24T06:10:26.305Z,85.42
2023-03-24T06:11:26.292Z,85.28
2023-03-24T06:12:26.271Z,84.88
2023-03-24T06:13:26.267Z,84.88
2023-03-24T06:14:26.237Z,84.47
2023-03-24T06:15:26.266Z,84.67
2023-03-24T06:16:26.319Z,85.22
2023-03-24T06:17:26.301Z,85.42
2023-03-24T06:18:26.163Z,85.94
2023-03-24T06:19:26.171Z,85.83
2023-03-24T06:20:26.170Z,85.63
2023-03-24T06:21:26.182Z,86.29
2023-03-24T06:22:26.116Z,85.22
2023-03-24T06:23:26.191Z,85.38
2023-03-24T06:24:26.101Z,85.04
2023-03-24T06:25:26.124Z,84.06
2023-03-24T06:26:26.069Z,84.57
2023-03-24T06:27:26.075Z,83.20
2023-03-24T06:28:26.017Z,82.75
2023-03-24T06:29:26.085Z,82.21
2023-03-24T06:30:26.025Z,82.21
2023-03-24T06:31:26.041Z,82.04
2023-03-24T06:32:26.047Z,83.47
2023-03-24T06:33:26.040Z,83.16
2023-03-24T06:34:25.999Z,82.41
2023-03-24T06:35:26.053Z,82.17
2023-03-24T06:36:25.918Z,80.54
2023-03-24T06:37:25.933Z,80.64
2023-03-24T06:38:25.886Z,81.25
2023-03-24T06:39:25.894Z,80.84
2023-03-24T06:40:25.944Z,80.64
2023-03-24T06:41:25.856Z,80.54
2023-03-24T06:42:25.848Z,80.64
2023-03-24T06:43:25.850Z,80.84
2023-03-24T06:44:25.861Z,81.52
2023-03-24T06:45:25.799Z,80.60
2023-03-24T06:46:25.846Z,80.80
2023-03-24T06:47:25.796Z,81.11
2023-03-24T06:48:25.784Z,80.64
2023-03-24T06:49:25.771Z,81.66
2023-03-24T06:50:25.742Z,82.07
2023-03-24T06:51:25.718Z,82.61
2023-03-24T06:52:25.749Z,82.45
2023-03-24T06:53:25.710Z,83.63
2023-03-24T06:54:25.707Z,83.33
2023-03-24T06:55:25.742Z,82.82
2023-03-24T06:56:25.718Z,82.57
2023-03-24T06:57:25.688Z,82.09
2023-03-24T06:58:25.636Z,81.11
2023-03-24T06:59:25.608Z,81.76
2023-03-24T07:00:25.647Z,82.43
2023-03-24T07:01:25.621Z,82.98
2023-03-24T07:02:25.620Z,82.37
2023-03-24T07:03:25.686Z,81.04
2023-03-24T07:04:25.580Z,81.15
2023-03-24T07:05:25.539Z,81.52
2023-03-24T07:06:25.527Z,80.50
2023-03-24T07:07:53.420Z,80.70
2023-03-24T07:08:37.050Z,79.38
2023-03-24T07:09:26.477Z,79.95
2023-03-24T07:10:25.511Z,79.24
2023-03-24T07:11:25.450Z,79.64
2023-03-24T07:12:25.473Z,78.69
2023-03-24T07:13:25.430Z,78.80
2023-03-24T07:14:25.444Z,78.69
2023-03-24T07:15:25.434Z,79.24
2023-03-24T07:16:25.411Z,79.79
2023-03-24T07:17:25.393Z,80.70
2023-03-24T07:18:25.462Z,80.54
2023-03-24T07:19:25.374Z,80.43
2023-03-24T07:20:25.309Z,81.56
2023-03-24T07:21:25.347Z,81.56
2023-03-24T07:22:25.307Z,81.31
2023-03-24T07:23:25.295Z,79.30
2023-03-24T07:24:25.312Z,78.25
2023-03-24T07:25:25.277Z,78.01
2023-03-24T07:26:25.222Z,77.26
2023-03-24T07:27:25.208Z,75.60
2023-03-24T07:28:25.221Z,75.97
2023-03-24T07:29:25.213Z,74.44
2023-03-24T07:30:37.351Z,75.05
2023-03-24T07:31:26.198Z,73.87
2023-03-24T07:32:25.243Z,74.44
2023-03-24T07:33:25.190Z,73.70
2023-03-24T07:34:25.176Z,73.36
2023-03-24T07:35:25.211Z,72.25
2023-03-24T07:36:25.181Z,72.82
2023-03-24T07:37:25.140Z,71.97
2023-03-24T07:38:25.111Z,71.30
2023-03-24T07:39:25.081Z,72.45
2023-03-24T07:40:25.077Z,72.38
2023-03-24T07:41:25.037Z,73.50
2023-03-24T07:42:25.270Z,74.71
2023-03-24T07:43:25.003Z,72.85
2023-03-24T07:44:24.980Z,73.06
2023-03-24T07:45:25.090Z,71.84
2023-03-24T07:46:25.035Z,72.25
2023-03-24T07:47:26.138Z,71.44
2023-03-24T07:48:24.961Z,73.57
2023-03-24T07:49:24.922Z,72.52
2023-03-24T07:50:24.926Z,72.01
2023-03-24T07:51:24.931Z,71.30
2023-03-24T07:52:24.901Z,72.82
2023-03-24T07:53:24.896Z,71.47
2023-03-24T07:54:24.898Z,73.13
2023-03-24T07:55:24.850Z,73.83
2023-03-24T07:56:24.839Z,73.67
2023-03-24T07:57:24.879Z,74.31
2023-03-24T07:58:24.857Z,75.53
2023-03-24T07:59:26.606Z,75.63
2023-03-24T08:00:24.852Z,74.76
2023-03-24T08:01:24.838Z,76.38
2023-03-24T08:02:24.887Z,75.53
2023-03-24T08:03:24.868Z,75.09
2023-03-24T08:04:24.903Z,73.77
2023-03-24T08:05:24.763Z,73.57
2023-03-24T08:06:24.732Z,75.09
2023-03-24T08:07:24.705Z,73.74
2023-03-24T08:08:24.700Z,73.39
2023-03-24T08:09:24.694Z,73.46
2023-03-24T08:10:24.677Z,72.04
2023-03-24T08:11:24.646Z,72.75
2023-03-24T08:12:24.623Z,72.52
2023-03-24T08:13:24.647Z,71.73
2023-03-24T08:14:26.210Z,72.65
2023-03-24T08:15:24.590Z,72.31
2023-03-24T08:16:24.705Z,71.47
2023-03-24T08:17:24.612Z,70.05
2023-03-24T08:18:24.583Z,71.50
2023-03-24T08:19:24.543Z,71.44
2023-03-24T08:20:24.726Z,72.17
2023-03-24T08:21:24.504Z,72.78
2023-03-24T08:22:24.553Z,72.65
2023-03-24T08:23:24.546Z,73.50
2023-03-24T08:24:24.464Z,74.04
2023-03-24T08:25:24.505Z,75.30
2023-03-24T08:26:24.442Z,76.52
2023-03-24T08:27:24.463Z,76.45
2023-03-24T08:28:24.400Z,76.69
2023-03-24T08:29:24.426Z,77.61
2023-03-24T08:30:24.396Z,77.91
2023-03-24T08:31:24.520Z,78.02
2023-03-24T08:32:24.372Z,78.42
2023-03-24T08:33:24.344Z,78.42
2023-03-24T08:34:24.352Z,77.71
2023-03-24T08:35:24.372Z,77.61
2023-03-24T08:36:24.330Z,77.71
2023-03-24T08:37:24.283Z,78.08
2023-03-24T08:38:24.288Z,77.23
2023-03-24T08:39:24.297Z,77.03
2023-03-24T08:40:24.503Z,77.70
2023-03-24T08:41:24.271Z,78.01
2023-03-24T08:42:24.218Z,76.95
2023-03-24T08:43:24.265Z,75.23
2023-03-24T08:44:24.190Z,75.37
2023-03-24T08:45:24.210Z,75.87
2023-03-24T08:46:24.207Z,76.55
2023-03-24T08:47:24.163Z,75.09
2023-03-24T08:48:24.144Z,75.26
2023-03-24T08:49:24.166Z,72.85
2023-03-24T08:50:24.147Z,70.76
2023-03-24T08:51:24.120Z,70.39
2023-03-24T08:52:24.085Z,69.57
2023-03-24T08:53:24.073Z,69.04
2023-03-24T08:54:24.114Z,68.06
2023-03-24T08:55:24.116Z,69.00
2023-03-24T08:56:24.068Z,70.32
2023-03-24T08:57:24.004Z,70.08
2023-03-24T08:58:24.067Z,70.25
2023-03-24T08:59:23.977Z,67.86
2023-03-24T09:00:23.979Z,65.88
2023-03-24T09:01:24.024Z,65.64
2023-03-24T09:02:23.944Z,65.94
2023-03-24T09:03:23.957Z,66.21
2023-03-24T09:04:24.025Z,66.08
2023-03-24T09:05:36.488Z,64.73
2023-03-24T09:06:24.883Z,64.67
2023-03-24T09:07:23.917Z,65.87
2023-03-24T09:08:23.867Z,68.43
2023-03-24T09:09:23.832Z,67.82
2023-03-24T09:10:23.949Z,67.29
2023-03-24T09:11:23.809Z,68.26
2023-03-24T09:12:23.826Z,69.34
2023-03-24T09:13:23.820Z,70.72
2023-03-24T09:14:23.859Z,70.56
2023-03-24T09:15:23.770Z,70.96
2023-03-24T09:16:23.768Z,71.44
2023-03-24T09:17:23.835Z,69.88
2023-03-24T09:18:23.748Z,68.84
2023-03-24T09:19:23.801Z,69.20
2023-03-24T09:20:23.775Z,71.16
2023-03-24T09:21:23.678Z,70.69
2023-03-24T09:22:23.689Z,71.84
2023-03-24T09:23:23.696Z,72.85
2023-03-24T09:24:23.656Z,73.09
2023-03-24T09:25:31.212Z,72.17
2023-03-24T09:26:23.644Z,70.69
2023-03-24T09:27:23.648Z,71.44
2023-03-24T09:28:23.603Z,71.57
2023-03-24T09:29:23.592Z,72.17
2023-03-24T09:30:23.699Z,72.58
2023-03-24T09:31:23.564Z,71.64
2023-03-24T09:32:23.584Z,72.75
2023-03-24T09:33:23.559Z,69.34
2023-03-24T09:34:23.530Z,69.71
2023-03-24T09:35:23.504Z,68.70
2023-03-24T09:36:23.580Z,69.54
2023-03-24T09:37:23.486Z,70.62
2023-03-24T09:38:23.445Z,67.96
2023-03-24T09:39:23.498Z,68.80
2023-03-24T09:40:23.507Z,69.24
2023-03-24T09:41:23.428Z,68.63
2023-03-24T09:42:23.505Z,69.37
2023-03-24T09:43:23.386Z,69.41
2023-03-24T09:44:23.421Z,70.45
2023-03-24T09:45:23.349Z,69.71
2023-03-24T09:46:23.363Z,70.11
2023-03-24T09:47:23.369Z,70.55
2023-03-24T09:48:23.355Z,70.72
2023-03-24T09:49:23.347Z,70.15
2023-03-24T09:50:23.312Z,70.72
2023-03-24T09:51:23.286Z,71.23
2023-03-24T09:52:23.315Z,70.72
2023-03-24T09:53:23.297Z,70.92
2023-03-24T09:54:23.281Z,71.16
2023-03-24T09:55:23.223Z,71.16
2023-03-24T09:56:23.251Z,70.86
2023-03-24T09:57:23.214Z,72.89
2023-03-24T09:58:23.262Z,72.34
2023-03-24T09:59:23.177Z,70.32
2023-03-24T10:00:23.324Z,71.50
2023-03-24T10:01:23.223Z,70.11
2023-03-24T10:02:23.225Z,70.92
2023-03-24T10:03:23.446Z,71.53
2023-03-24T10:04:23.126Z,71.09
2023-03-24T10:05:23.181Z,72.41
2023-03-24T10:06:23.097Z,70.35
2023-03-24T10:07:23.078Z,69.34
2023-03-24T10:08:23.080Z,69.31
2023-03-24T10:09:30.627Z,69.88
2023-03-24T10:10:23.038Z,68.70
2023-03-24T10:11:23.042Z,67.82
2023-03-24T10:12:23.033Z,68.23
2023-03-24T10:13:23.006Z,68.52
2023-03-24T10:14:22.976Z,70.08
2023-03-24T10:16:23.006Z,67.52
2023-03-24T10:17:22.988Z,65.16
2023-03-24T10:18:22.944Z,65.70
2023-03-24T10:19:22.943Z,66.84
2023-03-24T10:20:22.901Z,68.16
2023-03-24T10:21:22.882Z,66.81
2023-03-24T10:22:22.931Z,66.50
2023-03-24T10:23:22.910Z,66.88
2023-03-24T10:24:22.856Z,67.59
2023-03-24T10:25:22.881Z,67.82
2023-03-24T10:26:22.855Z,66.74
2023-03-24T10:27:22.819Z,68.43
2023-03-24T10:28:22.853Z,66.00
2023-03-24T10:29:22.771Z,66.30
2023-03-24T10:30:22.795Z,66.44
2023-03-24T10:31:22.792Z,67.58
2023-03-24T10:32:22.743Z,67.38
2023-03-24T10:33:22.759Z,67.38
2023-03-24T10:34:23.076Z,66.60
2023-03-24T10:35:22.719Z,68.26
2023-03-24T10:36:22.741Z,68.73
2023-03-24T10:37:22.668Z,67.44
2023-03-24T10:38:22.702Z,67.44
2023-03-24T10:39:28.652Z,67.95
2023-03-24T10:40:23.698Z,66.70
2023-03-24T10:41:22.683Z,65.62
2023-03-24T10:42:22.618Z,65.79
2023-03-24T10:43:22.623Z,65.25
2023-03-24T10:44:22.674Z,64.64
2023-03-24T10:45:22.594Z,64.21
2023-03-24T10:46:22.592Z,64.38
2023-03-24T10:47:22.591Z,65.13
2023-03-24T10:48:22.599Z,63.31
2023-03-24T10:49:22.568Z,63.48
2023-03-24T10:50:22.507Z,62.24
2023-03-24T10:51:22.516Z,60.85
2023-03-24T10:52:22.462Z,62.70
2023-03-24T10:53:22.450Z,61.85
2023-03-24T10:54:22.533Z,63.90
2023-03-24T10:55:22.448Z,63.30
2023-03-24T10:56:22.418Z,64.47
2023-03-24T10:57:22.409Z,64.81
2023-03-24T10:58:22.411Z,65.65
2023-03-24T10:59:22.385Z,66.86
2023-03-24T11:00:22.438Z,67.07
2023-03-24T11:01:22.425Z,67.20
2023-03-24T11:02:22.411Z,67.54
2023-03-24T11:03:22.356Z,68.15
2023-03-24T11:04:22.334Z,68.35
2023-03-24T11:05:22.296Z,68.18
2023-03-24T11:06:22.319Z,68.99
2023-03-24T11:07:22.288Z,68.76
2023-03-24T11:08:22.280Z,69.17
2023-03-24T11:09:22.237Z,68.96
2023-03-24T11:10:22.235Z,68.83
2023-03-24T11:11:22.262Z,68.12
2023-03-24T11:12:22.385Z,68.12
2023-03-24T11:13:22.227Z,69.20
2023-03-24T11:14:22.192Z,69.07
2023-03-24T11:15:23.304Z,67.31
2023-03-24T11:16:22.196Z,66.02
2023-03-24T11:17:22.151Z,65.59
2023-03-24T11:18:22.176Z,66.06
2023-03-24T11:19:22.824Z,65.32
2023-03-24T11:20:22.099Z,64.61
2023-03-24T11:21:22.079Z,65.39
2023-03-24T11:22:22.102Z,63.68
2023-03-24T11:23:22.065Z,62.11
2023-03-24T11:24:22.072Z,62.64
2023-03-24T11:25:22.038Z,62.63
2023-03-24T11:26:22.041Z,63.47
2023-03-24T11:27:21.987Z,64.69
2023-03-24T11:28:21.978Z,63.67
2023-03-24T11:29:22.031Z,62.93
2023-03-24T11:30:21.961Z,62.90
2023-03-24T11:31:22.001Z,62.43
2023-03-24T11:32:21.934Z,62.84
2023-03-24T11:33:21.921Z,62.43
2023-03-24T11:34:22.898Z,63.04
2023-03-24T11:36:21.944Z,62.63
2023-03-24T11:37:21.960Z,62.15
2023-03-24T11:38:21.868Z,62.66
2023-03-24T11:39:21.882Z,61.75
2023-03-24T11:40:21.868Z,64.61
2023-03-24T11:41:21.905Z,63.12
2023-03-24T11:42:21.803Z,63.86
2023-03-24T11:43:21.839Z,64.88
2023-03-24T11:44:21.789Z,65.01
2023-03-24T11:45:21.810Z,65.72
2023-03-24T11:46:21.826Z,66.13
2023-03-24T11:47:21.797Z,65.52
2023-03-24T11:48:21.805Z,66.16
2023-03-24T11:49:21.730Z,66.29
2023-03-24T11:50:21.814Z,67.00
2023-03-24T11:51:21.675Z,67.88
2023-03-24T11:52:21.752Z,67.98
2023-03-24T11:53:21.671Z,67.55
2023-03-24T11:54:21.657Z,66.33
2023-03-24T11:55:21.629Z,67.11
2023-03-24T11:56:21.691Z,66.43
2023-03-24T11:57:21.606Z,65.69
2023-03-24T11:58:21.618Z,66.09
2023-03-24T11:59:21.726Z,65.79
2023-03-24T12:00:21.569Z,65.93
2023-03-24T12:01:21.627Z,64.28
2023-03-24T12:02:21.670Z,63.13
2023-03-24T12:03:21.605Z,61.92
2023-03-24T12:04:21.537Z,63.17
2023-03-24T12:05:21.557Z,64.48
2023-03-24T12:06:21.551Z,63.98
2023-03-24T12:07:21.469Z,62.66
2023-03-24T12:08:21.481Z,64.38
2023-03-24T12:09:21.538Z,64.07
2023-03-24T12:10:22.444Z,63.37
2023-03-24T12:11:21.444Z,64.38
2023-03-24T12:12:21.534Z,65.70
2023-03-24T12:13:32.362Z,64.07
2023-03-24T12:14:22.449Z,63.67
2023-03-24T12:15:28.140Z,63.90
2023-03-24T12:16:22.439Z,65.12
2023-03-24T12:17:21.551Z,65.19
2023-03-24T12:18:21.330Z,65.19
2023-03-24T12:19:21.316Z,63.57
2023-03-24T12:20:21.360Z,62.69
2023-03-24T12:21:21.291Z,62.92
2023-03-24T12:22:21.289Z,63.93
2023-03-24T12:23:21.268Z,64.37
2023-03-24T12:24:21.269Z,64.14
2023-03-24T12:25:21.323Z,65.05
2023-03-24T12:26:21.232Z,64.21
2023-03-24T12:27:21.217Z,63.07
2023-03-24T12:28:21.191Z,63.07
2023-03-24T12:29:21.218Z,64.35
2023-03-24T12:30:21.208Z,63.71
2023-03-24T12:31:21.204Z,61.87
2023-03-24T12:32:21.242Z,62.27
2023-03-24T12:33:21.141Z,62.10
2023-03-24T12:34:21.135Z,61.43
2023-03-24T12:35:21.165Z,62.05
2023-03-24T12:36:21.085Z,59.00
2023-03-24T12:37:21.078Z,59.40
2023-03-24T12:38:21.102Z,57.70
2023-03-24T12:39:21.034Z,57.73
2023-03-24T12:40:21.115Z,57.96
2023-03-24T12:41:22.138Z,60.53
2023-03-24T12:42:21.060Z,59.22
2023-03-24T12:43:20.974Z,59.66
2023-03-24T12:44:21.031Z,58.85
2023-03-24T12:45:20.975Z,60.52
2023-03-24T12:46:21.097Z,61.76
2023-03-24T12:47:20.962Z,61.66
2023-03-24T12:48:20.983Z,62.79
2023-03-24T12:49:20.982Z,59.27
2023-03-24T12:50:20.918Z,59.60
2023-03-24T12:51:20.898Z,59.56
2023-03-24T12:52:20.909Z,60.39
2023-03-24T12:53:20.918Z,61.05
2023-03-24T12:54:20.992Z,61.76